sensor_id;sensor_type;location;lat;lon;timestamp;pressure;altitude;pressure_sealevel;temperature;humidity
80747;BME280;76868;50.218;14.322;2024-03-06T00:01:52;99148.25;;;21.64;59.69
80747;BME280;76868;50.218;14.322;2024-03-06T00:04:17;99143.84;;;21.63;59.67
80747;BME280;76868;50.218;14.322;2024-03-06T00:06:43;99151.41;;;21.62;59.73
80747;BME280;76868;50.218;14.322;2024-03-06T00:09:08;99145.00;;;21.62;59.29
80747;BME280;76868;50.218;14.322;2024-03-06T00:11:34;99149.75;;;21.61;59.19
80747;BME280;76868;50.218;14.322;2024-03-06T00:14:03;99149.75;;;21.61;59.26
80747;BME280;76868;50.218;14.322;2024-03-06T00:16:31;99151.78;;;21.61;59.33
80747;BME280;76868;50.218;14.322;2024-03-06T00:18:56;99153.75;;;21.60;59.53
80747;BME280;76868;50.218;14.322;2024-03-06T00:21:21;99162.09;;;21.60;59.58
80747;BME280;76868;50.218;14.322;2024-03-06T00:23:47;99162.44;;;21.59;59.69
80747;BME280;76868;50.218;14.322;2024-03-06T00:26:12;99159.22;;;21.57;59.23
80747;BME280;76868;50.218;14.322;2024-03-06T00:28:38;99166.38;;;21.58;59.60
80747;BME280;76868;50.218;14.322;2024-03-06T00:31:05;99164.78;;;21.57;59.56
80747;BME280;76868;50.218;14.322;2024-03-06T00:33:30;99169.53;;;21.56;59.28
80747;BME280;76868;50.218;14.322;2024-03-06T00:35:55;99168.72;;;21.56;59.49
80747;BME280;76868;50.218;14.322;2024-03-06T00:38:21;99174.63;;;21.54;59.55
80747;BME280;76868;50.218;14.322;2024-03-06T00:40:46;99177.44;;;21.54;59.16
80747;BME280;76868;50.218;14.322;2024-03-06T00:43:12;99174.19;;;21.52;59.46
80747;BME280;76868;50.218;14.322;2024-03-06T00:45:37;99177.44;;;21.54;59.57
80747;BME280;76868;50.218;14.322;2024-03-06T00:48:02;99170.25;;;21.53;59.59
80747;BME280;76868;50.218;14.322;2024-03-06T00:50:29;99182.19;;;21.53;59.53
80747;BME280;76868;50.218;14.322;2024-03-06T00:52:54;99181.41;;;21.53;59.62
80747;BME280;76868;50.218;14.322;2024-03-06T00:55:19;99178.63;;;21.53;59.47
80747;BME280;76868;50.218;14.322;2024-03-06T00:57:45;99186.16;;;21.52;59.03
80747;BME280;76868;50.218;14.322;2024-03-06T01:00:11;99180.59;;;21.52;59.47
80747;BME280;76868;50.218;14.322;2024-03-06T01:02:37;99183.38;;;21.52;59.24
80747;BME280;76868;50.218;14.322;2024-03-06T01:05:03;99179.78;;;21.52;59.33
80747;BME280;76868;50.218;14.322;2024-03-06T01:07:33;99178.97;;;21.51;59.11
80747;BME280;76868;50.218;14.322;2024-03-06T01:09:59;99173.72;;;21.50;59.07
80747;BME280;76868;50.218;14.322;2024-03-06T01:12:26;99169.78;;;21.51;58.92
80747;BME280;76868;50.218;14.322;2024-03-06T01:14:52;99176.06;;;21.48;59.00
80747;BME280;76868;50.218;14.322;2024-03-06T01:17:17;99167.00;;;21.51;59.14
80747;BME280;76868;50.218;14.322;2024-03-06T01:19:42;99172.94;;;21.49;59.07
80747;BME280;76868;50.218;14.322;2024-03-06T01:22:11;99176.06;;;21.48;59.39
80747;BME280;76868;50.218;14.322;2024-03-06T01:24:38;99172.94;;;21.49;59.31
80747;BME280;76868;50.218;14.322;2024-03-06T01:27:04;99175.72;;;21.49;59.12
80747;BME280;76868;50.218;14.322;2024-03-06T01:29:29;99181.66;;;21.48;59.00
80747;BME280;76868;50.218;14.322;2024-03-06T01:31:54;99182.47;;;21.48;59.33
80747;BME280;76868;50.218;14.322;2024-03-06T01:34:20;99180.00;;;21.47;59.16
80747;BME280;76868;50.218;14.322;2024-03-06T01:36:45;99180.50;;;21.49;58.86
80747;BME280;76868;50.218;14.322;2024-03-06T01:39:11;99178.03;;;21.47;59.22
80747;BME280;76868;50.218;14.322;2024-03-06T01:41:36;99176.41;;;21.46;59.16
80747;BME280;76868;50.218;14.322;2024-03-06T01:44:02;99176.41;;;21.46;59.13
80747;BME280;76868;50.218;14.322;2024-03-06T01:46:28;99175.59;;;21.46;58.85
80747;BME280;76868;50.218;14.322;2024-03-06T01:48:54;99182.00;;;21.46;58.85
80747;BME280;76868;50.218;14.322;2024-03-06T01:51:19;99187.56;;;21.46;59.04
80747;BME280;76868;50.218;14.322;2024-03-06T01:53:45;99190.34;;;21.46;59.19
80747;BME280;76868;50.218;14.322;2024-03-06T01:56:10;99189.09;;;21.44;59.03
80747;BME280;76868;50.218;14.322;2024-03-06T01:58:40;99189.53;;;21.46;58.75
80747;BME280;76868;50.218;14.322;2024-03-06T02:01:05;99187.94;;;21.45;59.23
80747;BME280;76868;50.218;14.322;2024-03-06T02:03:31;99185.59;;;21.47;59.06
80747;BME280;76868;50.218;14.322;2024-03-06T02:05:57;99192.31;;;21.46;58.88
80747;BME280;76868;50.218;14.322;2024-03-06T02:08:24;99183.06;;;21.42;58.90
80747;BME280;76868;50.218;14.322;2024-03-06T02:10:49;99195.47;;;21.44;58.67
80747;BME280;76868;50.218;14.322;2024-03-06T02:13:15;99193.50;;;21.45;59.16
80747;BME280;76868;50.218;14.322;2024-03-06T02:15:40;99187.94;;;21.45;58.69
80747;BME280;76868;50.218;14.322;2024-03-06T02:18:06;99196.28;;;21.45;58.72
80747;BME280;76868;50.218;14.322;2024-03-06T02:20:31;99191.53;;;21.45;59.08
80747;BME280;76868;50.218;14.322;2024-03-06T02:22:57;99195.47;;;21.44;58.94
80747;BME280;76868;50.218;14.322;2024-03-06T02:25:22;99199.41;;;21.43;58.74
80747;BME280;76868;50.218;14.322;2024-03-06T02:27:47;99198.59;;;21.43;58.79
80747;BME280;76868;50.218;14.322;2024-03-06T02:30:19;99202.19;;;21.43;58.61
80747;BME280;76868;50.218;14.322;2024-03-06T02:32:45;99198.59;;;21.43;58.58
80747;BME280;76868;50.218;14.322;2024-03-06T02:35:11;99202.56;;;21.42;58.56
80747;BME280;76868;50.218;14.322;2024-03-06T02:37:37;99209.72;;;21.43;59.07
80747;BME280;76868;50.218;14.322;2024-03-06T02:40:02;99206.13;;;21.42;58.62
80747;BME280;76868;50.218;14.322;2024-03-06T02:42:28;99212.88;;;21.41;58.83
80747;BME280;76868;50.218;14.322;2024-03-06T02:44:53;99212.88;;;21.41;58.53
80747;BME280;76868;50.218;14.322;2024-03-06T02:47:19;99212.88;;;21.41;58.71
80747;BME280;76868;50.218;14.322;2024-03-06T02:49:45;99222.06;;;21.42;58.54
80747;BME280;76868;50.218;14.322;2024-03-06T02:52:10;99207.31;;;21.41;58.66
80747;BME280;76868;50.218;14.322;2024-03-06T02:54:35;99221.25;;;21.41;58.99
80747;BME280;76868;50.218;14.322;2024-03-06T02:57:01;99226.00;;;21.41;58.56
80747;BME280;76868;50.218;14.322;2024-03-06T02:59:26;99217.97;;;21.39;58.87
80747;BME280;76868;50.218;14.322;2024-03-06T03:01:52;99224.03;;;21.41;58.89
80747;BME280;76868;50.218;14.322;2024-03-06T03:04:18;99225.19;;;21.40;58.91
80747;BME280;76868;50.218;14.322;2024-03-06T03:06:43;99222.06;;;21.42;58.95
80747;BME280;76868;50.218;14.322;2024-03-06T03:09:08;99224.03;;;21.41;58.64
80747;BME280;76868;50.218;14.322;2024-03-06T03:11:37;99227.97;;;21.40;58.57
80747;BME280;76868;50.218;14.322;2024-03-06T03:14:02;99232.38;;;21.41;59.01
80747;BME280;76868;50.218;14.322;2024-03-06T03:16:28;99223.22;;;21.41;58.90
80747;BME280;76868;50.218;14.322;2024-03-06T03:18:55;99224.72;;;21.38;58.88
80747;BME280;76868;50.218;14.322;2024-03-06T03:21:20;99238.75;;;21.42;58.54
80747;BME280;76868;50.218;14.322;2024-03-06T03:23:46;99227.97;;;21.40;58.94
80747;BME280;76868;50.218;14.322;2024-03-06T03:26:12;99227.97;;;21.40;58.58
80747;BME280;76868;50.218;14.322;2024-03-06T03:28:38;99235.16;;;21.41;58.88
80747;BME280;76868;50.218;14.322;2024-03-06T03:31:08;99227.97;;;21.40;58.99
80747;BME280;76868;50.218;14.322;2024-03-06T03:33:40;99239.09;;;21.40;58.82
80747;BME280;76868;50.218;14.322;2024-03-06T03:36:06;99232.72;;;21.40;58.67
80747;BME280;76868;50.218;14.322;2024-03-06T03:38:32;99229.94;;;21.40;58.49
80747;BME280;76868;50.218;14.322;2024-03-06T03:41:01;99234.69;;;21.39;58.82
80747;BME280;76868;50.218;14.322;2024-03-06T03:43:26;99228.31;;;21.39;58.69
80747;BME280;76868;50.218;14.322;2024-03-06T03:45:51;99223.09;;;21.37;58.43
80747;BME280;76868;50.218;14.322;2024-03-06T03:48:17;99228.31;;;21.39;58.94
80747;BME280;76868;50.218;14.322;2024-03-06T03:50:42;99229.94;;;21.40;58.96
80747;BME280;76868;50.218;14.322;2024-03-06T03:53:07;99227.50;;;21.38;58.71
80747;BME280;76868;50.218;14.322;2024-03-06T03:55:33;99231.09;;;21.39;58.45
80747;BME280;76868;50.218;14.322;2024-03-06T03:57:58;99243.03;;;21.39;58.42
80747;BME280;76868;50.218;14.322;2024-03-06T04:00:24;99237.47;;;21.39;58.79
80747;BME280;76868;50.218;14.322;2024-03-06T04:02:49;99240.25;;;21.39;58.47
80747;BME280;76868;50.218;14.322;2024-03-06T04:05:14;99235.84;;;21.38;58.62
80747;BME280;76868;50.218;14.322;2024-03-06T04:07:40;99243.03;;;21.39;58.71
80747;BME280;76868;50.218;14.322;2024-03-06T04:10:06;99248.59;;;21.39;58.93
80747;BME280;76868;50.218;14.322;2024-03-06T04:12:31;99255.81;;;21.40;58.69
80747;BME280;76868;50.218;14.322;2024-03-06T04:14:56;99250.25;;;21.40;58.34
80747;BME280;76868;50.218;14.322;2024-03-06T04:17:22;99252.53;;;21.38;58.43
80747;BME280;76868;50.218;14.322;2024-03-06T04:19:48;99249.75;;;21.38;58.92
80747;BME280;76868;50.218;14.322;2024-03-06T04:22:14;99253.38;;;21.39;58.84
80747;BME280;76868;50.218;14.322;2024-03-06T04:24:43;99249.75;;;21.38;58.49
80747;BME280;76868;50.218;14.322;2024-03-06T04:27:08;99248.59;;;21.39;58.63
80747;BME280;76868;50.218;14.322;2024-03-06T04:29:34;99247.34;;;21.37;58.58
80747;BME280;76868;50.218;14.322;2024-03-06T04:31:59;99252.53;;;21.38;58.76
80747;BME280;76868;50.218;14.322;2024-03-06T04:34:24;99250.56;;;21.39;58.98
80747;BME280;76868;50.218;14.322;2024-03-06T04:36:50;99254.53;;;21.38;58.71
80747;BME280;76868;50.218;14.322;2024-03-06T04:39:15;99243.03;;;21.39;58.45
80747;BME280;76868;50.218;14.322;2024-03-06T04:41:40;99254.19;;;21.39;58.83
80747;BME280;76868;50.218;14.322;2024-03-06T04:44:06;99253.38;;;21.39;58.39
80747;BME280;76868;50.218;14.322;2024-03-06T04:46:31;99256.97;;;21.39;58.91
80747;BME280;76868;50.218;14.322;2024-03-06T04:48:56;99260.13;;;21.38;58.46
80747;BME280;76868;50.218;14.322;2024-03-06T04:51:22;99269.25;;;21.38;58.89
80747;BME280;76868;50.218;14.322;2024-03-06T04:53:48;99264.50;;;21.39;58.96
80747;BME280;76868;50.218;14.322;2024-03-06T04:56:13;99261.72;;;21.39;58.57
80747;BME280;76868;50.218;14.322;2024-03-06T04:58:38;99257.78;;;21.40;58.45
80747;BME280;76868;50.218;14.322;2024-03-06T05:01:04;99264.50;;;21.39;58.69
80747;BME280;76868;50.218;14.322;2024-03-06T05:03:29;99259.75;;;21.39;58.41
80747;BME280;76868;50.218;14.322;2024-03-06T05:05:54;99265.31;;;21.39;58.53
80747;BME280;76868;50.218;14.322;2024-03-06T05:08:20;99262.53;;;21.39;58.55
80747;BME280;76868;50.218;14.322;2024-03-06T05:10:46;99262.09;;;21.37;58.52
80747;BME280;76868;50.218;14.322;2024-03-06T05:13:11;99256.16;;;21.39;58.49
80747;BME280;76868;50.218;14.322;2024-03-06T05:15:36;99258.13;;;21.38;58.87
80747;BME280;76868;50.218;14.322;2024-03-06T05:18:02;99272.03;;;21.38;58.35
80747;BME280;76868;50.218;14.322;2024-03-06T05:20:28;99273.66;;;21.39;58.44
80747;BME280;76868;50.218;14.322;2024-03-06T05:22:56;99277.50;;;21.35;58.62
80747;BME280;76868;50.218;14.322;2024-03-06T05:25:21;99286.78;;;21.39;58.55
80747;BME280;76868;50.218;14.322;2024-03-06T05:27:46;99284.81;;;21.39;58.41
80747;BME280;76868;50.218;14.322;2024-03-06T05:30:12;99294.78;;;21.40;58.79
80747;BME280;76868;50.218;14.322;2024-03-06T05:32:37;99287.97;;;21.38;58.75
80747;BME280;76868;50.218;14.322;2024-03-06T05:35:03;99298.72;;;21.39;58.67
80747;BME280;76868;50.218;14.322;2024-03-06T05:37:29;99287.59;;;21.39;58.34
80747;BME280;76868;50.218;14.322;2024-03-06T05:39:54;99294.31;;;21.38;59.06
80747;BME280;76868;50.218;14.322;2024-03-06T05:42:19;99299.09;;;21.38;58.95
80747;BME280;76868;50.218;14.322;2024-03-06T05:44:44;99306.63;;;21.37;58.52
80747;BME280;76868;50.218;14.322;2024-03-06T05:47:10;99303.84;;;21.37;58.29
80747;BME280;76868;50.218;14.322;2024-03-06T05:49:35;99301.41;;;21.36;58.53
80747;BME280;76868;50.218;14.322;2024-03-06T05:52:01;99306.63;;;21.37;58.56
80747;BME280;76868;50.218;14.322;2024-03-06T05:54:27;99305.25;;;20.95;46.20
80747;BME280;76868;50.218;14.322;2024-03-06T05:56:54;99309.78;;;20.99;53.04
80747;BME280;76868;50.218;14.322;2024-03-06T05:59:20;99317.44;;;21.02;54.96
80747;BME280;76868;50.218;14.322;2024-03-06T06:01:45;99310.34;;;21.05;55.00
80747;BME280;76868;50.218;14.322;2024-03-06T06:04:12;99319.16;;;21.07;55.36
80747;BME280;76868;50.218;14.322;2024-03-06T06:06:50;99326.81;;;21.10;56.09
80747;BME280;76868;50.218;14.322;2024-03-06T06:09:15;99322.53;;;21.13;55.60
80747;BME280;76868;50.218;14.322;2024-03-06T06:15:18;99336.69;;;21.20;55.43
80747;BME280;76868;50.218;14.322;2024-03-06T06:17:58;99342.34;;;21.23;55.42
80747;BME280;76868;50.218;14.322;2024-03-06T06:20:23;99344.09;;;21.28;55.34
80747;BME280;76868;50.218;14.322;2024-03-06T06:22:49;99348.63;;;21.32;55.21
80747;BME280;76868;50.218;14.322;2024-03-06T06:25:14;99340.03;;;21.37;55.64
80747;BME280;76868;50.218;14.322;2024-03-06T06:27:41;99348.13;;;21.42;55.64
80747;BME280;76868;50.218;14.322;2024-03-06T06:30:07;99345.13;;;21.47;55.61
80747;BME280;76868;50.218;14.322;2024-03-06T06:32:37;99340.47;;;21.51;55.20
80747;BME280;76868;50.218;14.322;2024-03-06T06:35:03;99342.91;;;21.53;55.03
80747;BME280;76868;50.218;14.322;2024-03-06T06:37:28;99347.66;;;21.52;55.30
80747;BME280;76868;50.218;14.322;2024-03-06T06:39:53;99354.84;;;21.53;55.24
80747;BME280;76868;50.218;14.322;2024-03-06T06:42:19;99355.66;;;21.54;55.18
80747;BME280;76868;50.218;14.322;2024-03-06T06:44:44;99360.78;;;21.52;55.01
80747;BME280;76868;50.218;14.322;2024-03-06T06:47:09;99361.59;;;21.52;54.52
80747;BME280;76868;50.218;14.322;2024-03-06T06:49:35;99367.16;;;21.52;55.07
80747;BME280;76868;50.218;14.322;2024-03-06T06:52:00;99370.28;;;21.51;54.93
80747;BME280;76868;50.218;14.322;2024-03-06T06:54:25;99372.25;;;21.50;54.40
80747;BME280;76868;50.218;14.322;2024-03-06T06:56:51;99377.00;;;21.50;54.23
80747;BME280;76868;50.218;14.322;2024-03-06T06:59:16;99377.81;;;21.50;54.20
80747;BME280;76868;50.218;14.322;2024-03-06T07:01:42;99377.81;;;21.50;53.84
80747;BME280;76868;50.218;14.322;2024-03-06T07:04:08;99376.22;;;21.49;54.52
80747;BME280;76868;50.218;14.322;2024-03-06T07:06:33;99370.16;;;21.47;53.85
80747;BME280;76868;50.218;14.322;2024-03-06T07:08:59;99378.53;;;21.47;53.53
80747;BME280;76868;50.218;14.322;2024-03-06T07:11:24;99384.09;;;21.47;53.76
80747;BME280;76868;50.218;14.322;2024-03-06T07:13:50;99386.06;;;21.47;53.91
80747;BME280;76868;50.218;14.322;2024-03-06T07:16:16;99388.03;;;21.46;54.04
80747;BME280;76868;50.218;14.322;2024-03-06T07:18:41;99391.63;;;21.47;54.06
80747;BME280;76868;50.218;14.322;2024-03-06T07:21:07;99378.41;;;21.44;53.47
80747;BME280;76868;50.218;14.322;2024-03-06T07:23:32;99386.88;;;21.47;54.12
80747;BME280;76868;50.218;14.322;2024-03-06T07:25:58;99384.09;;;21.47;53.64
80747;BME280;76868;50.218;14.322;2024-03-06T07:28:24;99388.03;;;21.46;53.80
80747;BME280;76868;50.218;14.322;2024-03-06T07:30:51;99392.78;;;21.46;53.81
80747;BME280;76868;50.218;14.322;2024-03-06T07:33:16;99387.22;;;21.46;53.33
80747;BME280;76868;50.218;14.322;2024-03-06T07:35:41;99389.22;;;21.45;53.96
80747;BME280;76868;50.218;14.322;2024-03-06T07:38:07;99394.78;;;21.45;53.58
80747;BME280;76868;50.218;14.322;2024-03-06T07:40:32;99395.13;;;21.44;53.25
80747;BME280;76868;50.218;14.322;2024-03-06T07:42:57;99387.81;;;21.39;53.93
80747;BME280;76868;50.218;14.322;2024-03-06T07:45:25;99394.53;;;21.38;53.09
80747;BME280;76868;50.218;14.322;2024-03-06T07:47:50;99402.22;;;21.41;53.55
80747;BME280;76868;50.218;14.322;2024-03-06T07:50:16;99401.72;;;21.39;54.02
80747;BME280;76868;50.218;14.322;2024-03-06T07:52:45;99402.56;;;21.40;54.37
80747;BME280;76868;50.218;14.322;2024-03-06T07:55:11;99405.34;;;21.40;53.76
80747;BME280;76868;50.218;14.322;2024-03-06T07:57:36;99407.31;;;21.39;53.56
80747;BME280;76868;50.218;14.322;2024-03-06T08:00:03;99417.28;;;21.40;53.91
80747;BME280;76868;50.218;14.322;2024-03-06T08:02:34;99411.38;;;21.42;54.55
80747;BME280;76868;50.218;14.322;2024-03-06T08:05:00;99413.34;;;21.41;54.04
80747;BME280;76868;50.218;14.322;2024-03-06T08:07:26;99420.88;;;21.41;54.29
80747;BME280;76868;50.218;14.322;2024-03-06T08:09:51;99420.06;;;21.40;54.06
80747;BME280;76868;50.218;14.322;2024-03-06T08:12:16;99420.88;;;21.41;54.06
80747;BME280;76868;50.218;14.322;2024-03-06T08:14:42;99415.31;;;21.41;54.57
80747;BME280;76868;50.218;14.322;2024-03-06T08:17:07;99428.44;;;21.40;53.80
80747;BME280;76868;50.218;14.322;2024-03-06T08:19:32;99422.53;;;21.42;54.36
80747;BME280;76868;50.218;14.322;2024-03-06T08:21:58;99427.72;;;21.43;54.49
80747;BME280;76868;50.218;14.322;2024-03-06T08:24:23;99423.78;;;21.44;54.31
80747;BME280;76868;50.218;14.322;2024-03-06T08:26:49;99426.91;;;21.43;53.94
80747;BME280;76868;50.218;14.322;2024-03-06T08:29:14;99432.13;;;21.44;54.60
80747;BME280;76868;50.218;14.322;2024-03-06T08:31:40;99429.34;;;21.44;54.83
80747;BME280;76868;50.218;14.322;2024-03-06T08:34:05;99432.59;;;21.46;54.76
80747;BME280;76868;50.218;14.322;2024-03-06T08:36:31;99433.06;;;21.48;55.51
80747;BME280;76868;50.218;14.322;2024-03-06T08:38:57;99430.28;;;21.48;54.95
80747;BME280;76868;50.218;14.322;2024-03-06T08:41:22;99428.66;;;21.47;55.22
80747;BME280;76868;50.218;14.322;2024-03-06T08:43:47;99429.47;;;21.48;55.01
80747;BME280;76868;50.218;14.322;2024-03-06T08:46:13;99425.53;;;21.49;55.01
80747;BME280;76868;50.218;14.322;2024-03-06T08:48:38;99424.34;;;21.50;54.77
80747;BME280;76868;50.218;14.322;2024-03-06T08:51:04;99430.72;;;21.50;54.87
80747;BME280;76868;50.218;14.322;2024-03-06T08:53:35;99426.69;;;21.48;55.04
80747;BME280;76868;50.218;14.322;2024-03-06T08:56:01;99428.75;;;21.51;54.82
80747;BME280;76868;50.218;14.322;2024-03-06T08:58:26;99427.13;;;21.50;54.43
80747;BME280;76868;50.218;14.322;2024-03-06T09:00:51;99434.34;;;21.51;54.33
80747;BME280;76868;50.218;14.322;2024-03-06T09:03:17;99421.66;;;21.53;54.80
80747;BME280;76868;50.218;14.322;2024-03-06T09:05:42;99424.44;;;21.53;54.35
80747;BME280;76868;50.218;14.322;2024-03-06T09:08:08;99427.25;;;21.53;54.66
80747;BME280;76868;50.218;14.322;2024-03-06T09:10:34;99424.94;;;21.56;54.64
80747;BME280;76868;50.218;14.322;2024-03-06T09:12:59;99434.09;;;21.56;54.70
80747;BME280;76868;50.218;14.322;2024-03-06T09:15:25;99434.91;;;21.57;54.57
80747;BME280;76868;50.218;14.322;2024-03-06T09:17:50;99434.09;;;21.56;54.27
80747;BME280;76868;50.218;14.322;2024-03-06T09:20:16;99434.56;;;21.58;54.60
80747;BME280;76868;50.218;14.322;2024-03-06T09:22:42;99435.72;;;21.57;54.68
80747;BME280;76868;50.218;14.322;2024-03-06T09:25:08;99440.22;;;21.62;54.47
80747;BME280;76868;50.218;14.322;2024-03-06T09:27:33;99437.75;;;21.84;54.85
80747;BME280;76868;50.218;14.322;2024-03-06T09:29:59;99442.41;;;21.80;54.55
80747;BME280;76868;50.218;14.322;2024-03-06T09:32:25;99443.47;;;21.76;54.79
80747;BME280;76868;50.218;14.322;2024-03-06T09:34:51;99442.66;;;21.75;54.60
80747;BME280;76868;50.218;14.322;2024-03-06T09:37:17;99442.66;;;21.75;54.51
80747;BME280;76868;50.218;14.322;2024-03-06T09:39:43;99450.00;;;21.68;52.67
80747;BME280;76868;50.218;14.322;2024-03-06T09:42:12;99439.56;;;21.65;53.47
80747;BME280;76868;50.218;14.322;2024-03-06T09:44:37;99444.41;;;21.68;53.64
80747;BME280;76868;50.218;14.322;2024-03-06T09:47:03;99441.25;;;21.69;53.03
80747;BME280;76868;50.218;14.322;2024-03-06T09:49:30;99447.31;;;21.71;52.34
80747;BME280;76868;50.218;14.322;2024-03-06T09:51:56;99452.78;;;21.68;51.67
80747;BME280;76868;50.218;14.322;2024-03-06T09:54:25;99458.94;;;21.49;48.51
80747;BME280;76868;50.218;14.322;2024-03-06T09:56:51;99450.69;;;21.28;47.82
80747;BME280;76868;50.218;14.322;2024-03-06T09:59:17;99447.34;;;21.23;47.20
80747;BME280;76868;50.218;14.322;2024-03-06T10:01:50;99447.28;;;21.11;47.20
80747;BME280;76868;50.218;14.322;2024-03-06T10:04:19;99443.19;;;20.51;39.03
80747;BME280;76868;50.218;14.322;2024-03-06T10:06:46;99450.34;;;19.48;40.96
80747;BME280;76868;50.218;14.322;2024-03-06T10:09:11;99454.34;;;18.84;44.46
80747;BME280;76868;50.218;14.322;2024-03-06T10:11:40;99450.34;;;18.38;43.81
80747;BME280;76868;50.218;14.322;2024-03-06T10:14:05;99451.19;;;18.04;42.27
80747;BME280;76868;50.218;14.322;2024-03-06T10:16:31;99444.97;;;18.67;44.36
80747;BME280;76868;50.218;14.322;2024-03-06T10:18:56;99452.66;;;19.08;44.10
80747;BME280;76868;50.218;14.322;2024-03-06T10:21:31;99452.81;;;19.41;43.54
80747;BME280;76868;50.218;14.322;2024-03-06T10:24:00;99455.31;;;19.63;43.12
80747;BME280;76868;50.218;14.322;2024-03-06T10:26:25;99456.19;;;19.85;43.47
80747;BME280;76868;50.218;14.322;2024-03-06T10:28:51;99452.31;;;19.98;43.19
80747;BME280;76868;50.218;14.322;2024-03-06T10:31:27;99452.25;;;20.06;42.34
80747;BME280;76868;50.218;14.322;2024-03-06T10:33:53;99449.41;;;20.15;42.38
80747;BME280;76868;50.218;14.322;2024-03-06T10:36:19;99444.78;;;20.19;41.45
80747;BME280;76868;50.218;14.322;2024-03-06T10:38:44;99447.34;;;20.24;41.44
80747;BME280;76868;50.218;14.322;2024-03-06T10:41:14;99450.91;;;20.33;41.74
80747;BME280;76868;50.218;14.322;2024-03-06T10:43:42;99451.16;;;20.40;41.67
80747;BME280;76868;50.218;14.322;2024-03-06T10:46:10;99445.84;;;20.47;42.23
80747;BME280;76868;50.218;14.322;2024-03-06T10:48:37;99447.75;;;20.55;42.06
80747;BME280;76868;50.218;14.322;2024-03-06T10:51:07;99444.88;;;20.64;42.61
80747;BME280;76868;50.218;14.322;2024-03-06T10:53:34;99447.44;;;20.69;43.31
80747;BME280;76868;50.218;14.322;2024-03-06T10:56:01;99444.22;;;20.79;43.47
80747;BME280;76868;50.218;14.322;2024-03-06T10:58:28;99438.09;;;20.86;44.21
80747;BME280;76868;50.218;14.322;2024-03-06T11:00:55;99446.66;;;20.93;43.98
80747;BME280;76868;50.218;14.322;2024-03-06T11:03:23;99446.94;;;21.00;44.59
80747;BME280;76868;50.218;14.322;2024-03-06T11:05:51;99442.44;;;21.08;44.70
80747;BME280;76868;50.218;14.322;2024-03-06T11:08:17;99437.78;;;21.12;45.09
80747;BME280;76868;50.218;14.322;2024-03-06T11:10:43;99430.75;;;21.14;45.74
80747;BME280;76868;50.218;14.322;2024-03-06T11:15:50;99440.16;;;21.22;46.13
80747;BME280;76868;50.218;14.322;2024-03-06T11:23:29;99437.91;;;21.27;46.21
80747;BME280;76868;50.218;14.322;2024-03-06T11:28:27;99433.66;;;21.30;47.14
80747;BME280;76868;50.218;14.322;2024-03-06T11:31:01;99428.91;;;21.30;47.32
80747;BME280;76868;50.218;14.322;2024-03-06T11:33:44;99429.25;;;21.29;46.85
80747;BME280;76868;50.218;14.322;2024-03-06T11:36:26;99428.94;;;22.07;46.83
80747;BME280;76868;50.218;14.322;2024-03-06T11:39:03;99421.81;;;22.09;46.16
80747;BME280;76868;50.218;14.322;2024-03-06T11:41:46;99425.94;;;21.87;46.51
80747;BME280;76868;50.218;14.322;2024-03-06T11:44:18;99426.78;;;21.76;47.29
80747;BME280;76868;50.218;14.322;2024-03-06T11:49:21;99422.03;;;21.64;47.78
80747;BME280;76868;50.218;14.322;2024-03-06T11:51:50;99419.13;;;21.61;47.97
80747;BME280;76868;50.218;14.322;2024-03-06T11:54:16;99424.59;;;21.57;48.76
80747;BME280;76868;50.218;14.322;2024-03-06T11:56:45;99416.91;;;21.54;48.34
80747;BME280;76868;50.218;14.322;2024-03-06T11:59:12;99413.69;;;21.52;49.17
80747;BME280;76868;50.218;14.322;2024-03-06T12:01:37;99410.91;;;21.52;49.24
80747;BME280;76868;50.218;14.322;2024-03-06T12:04:03;99414.50;;;21.52;49.61
80747;BME280;76868;50.218;14.322;2024-03-06T12:06:32;99416.09;;;21.53;49.10
80747;BME280;76868;50.218;14.322;2024-03-06T12:08:58;99406.16;;;21.52;49.81
80747;BME280;76868;50.218;14.322;2024-03-06T12:11:24;99409.75;;;21.53;49.57
80747;BME280;76868;50.218;14.322;2024-03-06T12:13:51;99406.97;;;21.53;49.96
80747;BME280;76868;50.218;14.322;2024-03-06T12:16:17;99409.75;;;21.53;50.14
80747;BME280;76868;50.218;14.322;2024-03-06T12:18:43;99404.97;;;21.53;50.30
80747;BME280;76868;50.218;14.322;2024-03-06T12:21:10;99409.75;;;21.53;50.06
80747;BME280;76868;50.218;14.322;2024-03-06T12:23:36;99395.34;;;21.51;50.27
80747;BME280;76868;50.218;14.322;2024-03-06T12:26:05;99396.97;;;21.52;50.81
80747;BME280;76868;50.218;14.322;2024-03-06T12:28:32;99392.13;;;21.49;50.54
80747;BME280;76868;50.218;14.322;2024-03-06T12:30:57;99395.34;;;21.51;50.53
80747;BME280;76868;50.218;14.322;2024-03-06T12:33:26;99384.56;;;21.49;50.79
80747;BME280;76868;50.218;14.322;2024-03-06T12:36:03;99387.00;;;21.51;50.66
80747;BME280;76868;50.218;14.322;2024-03-06T12:38:29;99385.03;;;21.51;50.67
80747;BME280;76868;50.218;14.322;2024-03-06T12:40:55;99379.91;;;21.53;50.68
80747;BME280;76868;50.218;14.322;2024-03-06T12:43:20;99378.28;;;21.52;51.14
80747;BME280;76868;50.218;14.322;2024-03-06T12:45:46;99382.69;;;21.53;51.33
80747;BME280;76868;50.218;14.322;2024-03-06T12:48:11;99383.50;;;21.54;50.93
80747;BME280;76868;50.218;14.322;2024-03-06T12:50:37;99383.88;;;21.52;50.98
80747;BME280;76868;50.218;14.322;2024-03-06T12:53:03;99380.28;;;21.52;51.65
80747;BME280;76868;50.218;14.322;2024-03-06T12:55:30;99381.09;;;21.52;51.65
80747;BME280;76868;50.218;14.322;2024-03-06T12:57:57;99378.28;;;21.52;51.32
80747;BME280;76868;50.218;14.322;2024-03-06T13:00:22;99379.44;;;21.51;51.73
80747;BME280;76868;50.218;14.322;2024-03-06T13:02:50;99389.44;;;21.52;51.72